Sie sind vermutlich noch nicht im Forum angemeldet - Klicken Sie hier um sich kostenlos anzumelden  

Synchrondatenbank (von Arne Kaul) | Deutsche Synchronkartei | Seriensynchron - SeSyDaB | dubDB | Die vergessenen Filme || Datenschutz
Sie können sich hier anmelden
Dieses Forum hat 3.259 Themen
und zur Zeit 38.615 Beiträge
Sie haben keine Schreibrechte
 Spielfilme 1990 bis 2009  »Neues Thema erstellen«
Forum Information
   Betreff Absender Antworten Zugriffe Letzter Beitrag
Mars Attacks! (USA 1996) VanToby 4 236 22.05.2018 16:58
Shadow of the Vampire (2000) Wilkins 4 216 20.05.2018 14:07
Code Condor (I 1990) Silenzio 0 92 18.05.2018 23:45
Der Dummschwätzer (USA 1997) VanToby 4 182 13.05.2018 23:04
Love & a .45 (1994) dlh 3 231 01.05.2018 10:26
Hot Shots 1+2 (USA 1991-1993) (1, 2) VanToby 26 2.059 30.04.2018 22:27
Küss den Frosch (The Princess And The Frog; USA, 2009) (1, 2, 3, 4, 5, 6, Letzte Seite) Isch 137 10.251 29.04.2018 15:57
Direct Hit - Im Todeskreis der Angst (USA 1994) Silenzio 0 79 26.04.2018 23:26
Bill & Teds verrückte Reise in die Zukunft (1991) dlh 12 619 25.04.2018 17:03
The Last Match - Der letzte Fight (I/USA 1991) Silenzio 0 100 22.04.2018 22:40
Dario Argentos "Sleepless" (2001) (1, 2) Slartibartfast 16 752 21.04.2018 11:42
Serial Mom - Warum lässt Mama das Morden nicht? (1993) dlh 6 547 19.04.2018 18:45
Story Of Ricky (1, 2) ElEf 23 1.113 17.04.2018 15:41
Prayers for Bobby (2008; DF: 2009) Frank Brenner 2 101 17.04.2018 15:24
Bolt - Ein Hund für alle Fälle (2008) Frank Brenner 11 1.401 15.04.2018 13:09
LOONEY TUNES Back In Action neusynchrosmachenalleskaputt 14 1.297 10.04.2018 15:47
Breaking the Waves (DK/NO/SE/FR/NL 1996) Silenzio 3 111 10.04.2018 01:22
Freundschaft, Liebe, Rache (Vento di mare) Gianfranco Mingozzi 1991 kogenta 0 72 10.04.2018 01:13
Lapitch, der kleine Schuhmacher (D/HR 1997) Edigrieg 5 159 08.04.2018 19:41
Power Rangers - Der Film (USA, 1995) hudemx 12 422 04.04.2018 17:46
Bube, Dame, Koenig grAS (Lock, stock and two smoking barrels, GB) rote Blume 13 1.342 04.04.2018 10:28
Hellraiser III: Hell on Earth (1992) WasGehtSieDasAn 11 537 30.03.2018 19:30
Mr. Jones (USA 1993) Silenzio 0 132 26.03.2018 22:24
Teuflisch (USA 2000) VanToby 3 152 26.03.2018 01:37
2 Tage in L.A. (USA 1996) Wilkins 0 131 25.03.2018 17:08
Barbie als Prinzessin und das Dorfmädchen Besetzungsliste Mew Mew 1 1.154 21.03.2018 21:41
Eiskalte Engel (1999) (1, 2, 3, 4) Samedi 45 2.708 21.03.2018 13:13
Die Asche meiner Mutter (1999; DF: 2000) Frank Brenner 3 184 20.03.2018 20:14
Nightmare Lover (USA 1993) Silenzio 5 153 19.03.2018 02:09
Bernard & Bianca im Känguruland (1990) Edigrieg 3 263 17.03.2018 12:49
The Invincible Iron Man (2007) hudemx 1 293 16.03.2018 12:24
August (1995; DF: 1996) Frank Brenner 6 284 14.03.2018 16:30
Fires Within (USA 1991) Silenzio 0 111 13.03.2018 00:36
Die Borgia (2006) Torben 2 129 12.03.2018 23:32
Jeanne d'Arc - Die Frau des Jahrtausends (1999) Torben 3 190 12.03.2018 18:34
Der Zauberpudding (Australien 2000 / DF 2002) Edigrieg 9 297 11.03.2018 21:23
The Skulls 3, am Samstag 12.04. Das Auge 6 487 09.03.2018 16:14
Timber Falls (USA 2007) Mew Mew 4 512 05.03.2018 00:40
Meine ... und ich (3 Filme) VanToby 5 336 04.03.2018 22:52
Super Mario Bros. (1993) dlh 5 605 21.02.2018 15:37
 Sprung Seite « zurück  1  2  3  4  5  6  7  8 - 82  weiter »

Farb-Legende: blau = Spekulation, orange = Trailer-Besetzung, grün = endgültige Besetzung, rot = Korrektur/Ergänzung zur endgültigen Besetzung

Wir lie... also, wir finden Synchron ganz in Ordnung.
Erreichbar unter
215072.homepagemodules.de -- synchron-forum.de.vu


Weitere Smileys auf www.smilie-harvester.de
Xobor Forum Software von Xobor | Forum, Fotos, Chat und mehr mit Xobor